Time;durP1;ratioP1;P1;durP2;ratioP2;P2;SDS_P1;SDS_P2;PMS_P1;PMS_P2;Temp;Humidity;BMP_temperature;BMP_pressure;BME280_temperature;BME280_humidity;BME280_pressure;Samples;Min_cycle;Max_cycle;Signal;HPM_P1;HPM_P2
2021/06/11 00:00:10;;;;;;;3.05;2.65;;;;;;;16.49;79.19;99045.23;1725543;80;21076;-56
2021/06/11 00:02:41;;;;;;;;;;;;;;;16.49;79.23;99051.53;1726498;80;21688;-57
2021/06/11 00:05:08;;;;;;;2.87;2.70;;;;;;;16.50;79.28;99049.16;1725262;80;20099;-56
2021/06/11 00:07:34;;;;;;;3.10;2.83;;;;;;;16.47;79.39;99049.44;1726476;80;21002;-56
2021/06/11 00:10:06;;;;;;;3.72;3.52;;;;;;;16.48;79.45;99044.38;1724990;80;20938;-56
2021/06/11 00:12:32;;;;;;;2.87;2.65;;;;;;;16.48;79.41;99048.45;1724424;80;20966;-56
2021/06/11 00:14:59;;;;;;;3.00;2.70;;;;;;;16.49;79.49;99050.18;1724554;80;22114;-56
2021/06/11 00:17:25;;;;;;;3.35;3.15;;;;;;;16.50;79.54;99051.88;1724150;80;21561;-56
2021/06/11 00:19:51;;;;;;;5.90;3.12;;;;;;;16.51;79.47;99054.97;1724885;80;20918;-56
2021/06/11 00:22:19;;;;;;;3.70;2.42;;;;;;;16.52;79.42;99059.91;1730893;80;20891;-56
2021/06/11 00:24:46;;;;;;;2.90;2.70;;;;;;;16.52;79.38;99058.55;1725722;80;21141;-56
2021/06/11 00:27:13;;;;;;;4.10;3.52;;;;;;;16.49;79.35;99055.61;1723973;80;21053;-56
2021/06/11 00:29:40;;;;;;;3.30;3.10;;;;;;;16.49;79.22;99059.69;1698463;80;21096;-57
2021/06/11 00:32:07;;;;;;;3.65;3.52;;;;;;;16.48;79.19;99058.45;1723852;80;21067;-56
2021/06/11 00:34:33;;;;;;;10.38;3.20;;;;;;;16.45;79.25;99056.84;1725448;80;22152;-55
2021/06/11 00:36:59;;;;;;;2.27;2.10;;;;;;;16.43;79.25;99062.89;1727799;80;22753;-55
2021/06/11 00:39:26;;;;;;;2.98;2.67;;;;;;;16.40;79.37;99060.45;1721510;80;21524;-56
2021/06/11 00:41:52;;;;;;;2.83;2.72;;;;;;;16.37;79.51;99063.41;1721725;80;21090;-56
2021/06/11 00:44:18;;;;;;;3.15;2.42;;;;;;;16.34;79.61;99062.78;1725746;80;21121;-56
2021/06/11 00:46:45;;;;;;;10.13;3.58;;;;;;;16.32;79.75;99061.58;1722369;80;21165;-56
2021/06/11 00:49:11;;;;;;;4.67;2.75;;;;;;;16.33;79.83;99060.59;1720060;80;21203;-55
2021/06/11 00:51:38;;;;;;;2.92;2.72;;;;;;;16.37;79.92;99063.90;1725823;80;21411;-56
2021/06/11 00:54:05;;;;;;;3.75;3.55;;;;;;;16.36;79.94;99061.67;1716692;80;21053;-56
2021/06/11 00:56:33;;;;;;;4.00;2.02;;;;;;;16.39;80.05;99066.87;1717295;81;21147;-55
2021/06/11 00:59:00;;;;;;;3.05;2.50;;;;;;;16.41;80.01;99061.31;1711083;80;21043;-55
2021/06/11 01:01:26;;;;;;;2.20;2.00;;;;;;;16.40;80.04;99060.94;1712028;81;21149;-55
2021/06/11 01:03:53;;;;;;;2.30;1.92;;;;;;;16.39;80.10;99065.52;1712566;81;21093;-56
2021/06/11 01:07:29;;;;;;;3.90;3.60;;;;;;;16.45;80.10;99063.63;1758569;79;28488;-56
2021/06/11 01:09:55;;;;;;;3.27;3.07;;;;;;;16.41;80.06;99059.46;1736491;80;21719;-56
2021/06/11 01:12:22;;;;;;;8.00;3.05;;;;;;;16.43;80.04;99066.09;1737872;80;21201;-57
2021/06/11 01:14:48;;;;;;;4.80;3.85;;;;;;;16.39;80.08;99054.64;1737786;81;20950;-56
2021/06/11 01:17:15;;;;;;;3.77;3.47;;;;;;;16.38;80.10;99061.06;1731960;80;21582;-56
2021/06/11 01:19:47;;;;;;;3.08;2.80;;;;;;;16.37;80.17;99061.19;1732650;80;21101;-56
2021/06/11 01:22:36;;;;;;;3.15;2.95;;;;;;;16.37;80.21;99066.61;1738127;80;21540;-56
2021/06/11 01:25:10;;;;;;;3.37;2.90;;;;;;;16.37;80.26;99062.55;1737618;80;21193;-56
2021/06/11 01:27:38;;;;;;;3.02;2.67;;;;;;;16.36;80.27;99064.39;1736979;81;28247;-56
2021/06/11 01:30:11;;;;;;;2.60;2.40;;;;;;;16.35;80.29;99064.02;1735202;81;21443;-57
2021/06/11 01:32:38;;;;;;;3.00;2.83;;;;;;;16.36;80.29;99062.17;1739729;81;21086;-56
2021/06/11 01:35:09;;;;;;;3.58;2.62;;;;;;;16.37;80.38;99067.48;1735711;80;20933;-54
2021/06/11 01:37:35;;;;;;;3.10;2.80;;;;;;;16.39;80.32;99070.94;1734091;81;21847;-58
2021/06/11 01:40:07;;;;;;;3.15;2.95;;;;;;;16.40;80.30;99065.88;1737936;81;21339;-54
2021/06/11 01:42:36;;;;;;;3.52;2.15;;;;;;;16.41;80.27;99073.05;1721998;81;21064;-56
2021/06/11 01:45:10;;;;;;;3.25;3.05;;;;;;;16.41;80.20;99075.76;1688674;82;21021;-54
2021/06/11 01:47:40;;;;;;;2.95;2.05;;;;;;;16.41;80.22;99074.40;1712630;82;21786;-53
2021/06/11 01:50:08;;;;;;;2.80;2.70;;;;;;;16.43;80.17;99071.04;1710531;82;21096;-56
2021/06/11 01:52:35;;;;;;;4.37;4.00;;;;;;;16.43;80.18;99072.89;1713797;81;21080;-55
2021/06/11 01:55:01;;;;;;;7.07;4.03;;;;;;;16.40;80.16;99072.67;1688802;82;21045;-57
2021/06/11 01:57:27;;;;;;;3.45;2.70;;;;;;;16.37;80.19;99067.48;1709827;81;21389;-57
2021/06/11 01:59:54;;;;;;;3.15;2.90;;;;;;;16.37;80.22;99068.84;1654219;84;21627;-54
2021/06/11 02:02:21;;;;;;;2.35;2.15;;;;;;;16.35;80.21;99065.38;1663307;84;21456;-55
2021/06/11 02:04:47;;;;;;;2.70;2.27;;;;;;;16.33;80.32;99072.81;1661011;84;21436;-55
2021/06/11 02:07:14;;;;;;;3.85;2.75;;;;;;;16.34;80.41;99075.00;1645443;84;21729;-54
2021/06/11 02:09:41;;;;;;;3.20;3.00;;;;;;;16.35;80.44;99074.02;1640496;86;21082;-55
2021/06/11 02:12:08;;;;;;;3.22;3.02;;;;;;;16.35;80.44;99075.38;1645380;86;21003;-57
2021/06/11 02:14:35;;;;;;;4.65;3.42;;;;;;;16.36;80.46;99082.54;1641048;86;21103;-55
2021/06/11 02:17:03;;;;;;;3.65;3.40;;;;;;;16.38;80.44;99082.79;1639448;85;21509;-56
2021/06/11 02:19:31;;;;;;;3.20;3.00;;;;;;;16.37;80.42;99079.70;1644228;85;21049;-57
2021/06/11 02:21:57;;;;;;;3.67;3.27;;;;;;;16.41;80.42;99083.05;1642020;86;21480;-59
2021/06/11 02:24:23;;;;;;;3.55;2.80;;;;;;;16.43;80.35;99083.27;1640650;86;21520;-58
2021/06/11 02:26:50;;;;;;;2.70;2.50;;;;;;;16.43;80.34;99085.11;1636106;85;21146;-58
2021/06/11 02:29:17;;;;;;;5.20;3.20;;;;;;;16.44;80.31;99089.06;1612720;86;21173;-56
2021/06/11 02:31:44;;;;;;;2.65;2.42;;;;;;;16.45;80.24;99085.36;1613990;85;20996;-56
2021/06/11 02:34:13;;;;;;;2.42;2.12;;;;;;;16.45;80.21;99086.72;1638622;85;21101;-54
2021/06/11 02:36:39;;;;;;;2.50;2.30;;;;;;;16.44;80.20;99089.56;1635843;85;21114;-58
2021/06/11 02:39:06;;;;;;;4.80;2.55;;;;;;;16.44;80.21;99094.50;1634861;85;22244;-54
2021/06/11 02:41:37;;;;;;;3.83;2.30;;;;;;;16.45;80.17;99086.72;1637139;85;21632;-57
2021/06/11 02:44:05;;;;;;;2.12;2.02;;;;;;;16.46;80.13;99092.53;1638051;85;20980;-55
2021/06/11 02:46:51;;;;;;;2.05;1.95;;;;;;;16.43;80.14;99094.13;1636912;85;21024;-58
2021/06/11 02:49:34;;;;;;;1.75;1.65;;;;;;;16.43;80.22;99089.19;1655728;82;20927;-56
2021/06/11 02:52:02;;;;;;;2.10;2.00;;;;;;;16.44;80.29;99097.70;1660400;84;21125;-59
2021/06/11 02:54:33;;;;;;;1.87;1.77;;;;;;;16.48;80.30;99097.84;1633651;85;20939;-57
2021/06/11 02:57:26;;;;;;;2.55;2.33;;;;;;;16.50;80.21;99097.22;1669504;83;21378;-55
2021/06/11 03:00:02;;;;;;;4.75;3.27;;;;;;;16.50;80.22;99095.86;1692184;82;22086;-56
2021/06/11 03:02:35;;;;;;;2.90;2.70;;;;;;;16.49;80.26;99099.08;1692379;82;20895;-55
2021/06/11 03:05:01;;;;;;;3.95;2.15;;;;;;;16.48;80.28;99093.77;1696655;82;22672;-56
2021/06/11 03:07:30;;;;;;;1.87;1.77;;;;;;;16.46;80.25;99100.67;1704577;82;21431;-55
2021/06/11 03:09:59;;;;;;;2.27;2.02;;;;;;;16.41;80.40;99101.56;1708930;82;20930;-57
2021/06/11 03:12:26;;;;;;;2.30;2.20;;;;;;;16.38;80.54;99105.88;1708238;82;21548;-57
2021/06/11 03:14:53;;;;;;;2.58;2.45;;;;;;;16.37;80.69;99106.86;1706788;82;22048;-54
2021/06/11 03:17:20;;;;;;;4.10;2.85;;;;;;;16.37;80.79;99104.14;1662657;82;21413;-57
2021/06/11 03:19:50;;;;;;;6.15;2.22;;;;;;;16.39;80.84;99112.17;1705074;82;21417;-56
2021/06/11 03:22:21;;;;;;;4.67;2.62;;;;;;;16.40;80.90;99108.47;1705507;82;21500;-54
2021/06/11 03:24:55;;;;;;;2.87;2.77;;;;;;;16.42;80.92;99111.41;1677642;82;21345;-58
2021/06/11 03:27:36;;;;;;;2.80;2.70;;;;;;;16.42;80.96;99105.98;1701558;82;26540;-55
2021/06/11 03:30:07;;;;;;;3.65;2.55;;;;;;;16.44;81.01;99108.57;1668506;83;21073;-58
2021/06/11 03:32:39;;;;;;;3.20;3.00;;;;;;;16.47;80.96;99102.41;1643398;85;21204;-60
2021/06/11 03:35:09;;;;;;;5.30;3.58;;;;;;;16.50;80.98;99110.28;1671468;83;21112;-59
2021/06/11 03:37:36;;;;;;;4.35;4.08;;;;;;;16.51;80.98;99109.79;1647416;85;20971;-58
2021/06/11 03:40:11;;;;;;;3.52;3.22;;;;;;;16.53;80.96;99097.81;1669767;83;21361;-58
2021/06/11 03:42:38;;;;;;;3.70;3.45;;;;;;;16.56;80.96;99101.64;1647399;85;21091;-56
2021/06/11 03:45:07;;;;;;;4.22;3.85;;;;;;;16.60;80.95;99104.95;1669046;83;21080;-56
2021/06/11 03:47:36;;;;;;;3.58;3.35;;;;;;;16.64;80.89;99106.47;1629314;85;21099;-56
2021/06/11 03:50:04;;;;;;;3.15;3.02;;;;;;;16.67;80.86;99100.80;1652862;85;21181;-55
2021/06/11 03:52:32;;;;;;;3.17;2.87;;;;;;;16.69;80.75;99106.08;1651141;85;21093;-57
2021/06/11 03:55:24;;;;;;;3.50;3.40;;;;;;;16.71;80.73;99102.74;1645458;85;21524;-59
2021/06/11 03:58:04;;;;;;;3.15;2.90;;;;;;;16.70;80.71;99105.95;1643074;85;21131;-57
2021/06/11 04:00:30;;;;;;;3.42;3.33;;;;;;;16.70;80.72;99102.37;1649997;85;20955;-56
2021/06/11 04:02:57;;;;;;;3.25;2.85;;;;;;;16.71;80.79;99102.74;1645947;85;21113;-58
2021/06/11 04:05:23;;;;;;;4.80;3.67;;;;;;;16.73;80.77;99102.99;1638733;85;21167;-55
2021/06/11 04:07:54;;;;;;;3.85;3.65;;;;;;;16.77;80.74;99108.52;1629324;85;21105;-55
2021/06/11 04:10:39;;;;;;;3.17;2.98;;;;;;;16.81;80.66;99112.72;1624784;87;21967;-57
2021/06/11 04:13:48;;;;;;;3.47;3.05;;;;;;;16.82;80.59;99116.30;1629010;87;22187;-54
2021/06/11 04:16:21;;;;;;;6.35;3.52;;;;;;;16.83;80.55;99121.62;1627943;85;21098;-57
2021/06/11 04:18:48;;;;;;;3.98;3.60;;;;;;;16.82;80.52;99120.38;1689225;82;21103;-55
2021/06/11 04:21:23;;;;;;;4.55;4.17;;;;;;;16.82;80.54;99121.74;1691322;82;21135;-59
2021/06/11 04:23:52;;;;;;;4.62;4.33;;;;;;;16.81;80.57;99114.58;1692150;82;21105;-54
2021/06/11 04:26:21;;;;;;;4.78;4.47;;;;;;;16.81;80.65;99122.23;1691764;82;21222;-56
2021/06/11 04:28:48;;;;;;;4.40;4.00;;;;;;;16.80;80.72;99118.28;1692728;82;21058;-54
2021/06/11 04:31:14;;;;;;;4.35;3.95;;;;;;;16.79;80.70;99122.85;1692044;82;21069;-58
2021/06/11 04:33:41;;;;;;;4.85;4.20;;;;;;;16.78;80.81;99116.18;1691417;82;21808;-55
2021/06/11 04:36:09;;;;;;;4.78;4.58;;;;;;;16.82;80.89;99117.66;1691210;82;21542;-57
2021/06/11 04:38:57;;;;;;;4.55;4.10;;;;;;;16.87;80.90;99127.15;1696075;82;21035;-55
2021/06/11 04:41:26;;;;;;;5.12;4.30;;;;;;;16.93;80.86;99127.12;1693877;82;21022;-54
2021/06/11 04:43:53;;;;;;;5.28;4.92;;;;;;;16.97;80.74;99123.16;1693561;82;21642;-56
2021/06/11 04:46:19;;;;;;;5.87;4.97;;;;;;;17.00;80.60;99126.50;1668570;83;21222;-58
2021/06/11 04:48:46;;;;;;;5.17;4.67;;;;;;;17.03;80.54;99129.44;1690647;82;21074;-54
2021/06/11 04:51:13;;;;;;;4.47;4.17;;;;;;;17.06;80.52;99128.32;1693272;82;21126;-55
2021/06/11 04:53:40;;;;;;;3.87;3.62;;;;;;;17.06;80.24;99121.03;1693425;82;21399;-54
2021/06/11 04:56:07;;;;;;;7.37;4.15;;;;;;;17.09;80.22;99119.42;1688077;82;21421;-55
2021/06/11 04:58:38;;;;;;;4.28;3.50;;;;;;;17.13;80.12;99125.45;1696431;82;21138;-56
2021/06/11 05:01:05;;;;;;;4.03;3.72;;;;;;;17.17;80.12;99125.56;1656626;84;21116;-58
2021/06/11 05:03:32;;;;;;;3.70;3.12;;;;;;;17.23;80.03;99123.17;1659887;84;21045;-55
2021/06/11 05:06:00;;;;;;;3.95;3.65;;;;;;;17.29;79.74;99125.86;1645823;85;22265;-54
2021/06/11 05:08:27;;;;;;;3.15;2.92;;;;;;;17.32;79.55;99120.17;1644251;84;21181;-56
2021/06/11 05:10:55;;;;;;;3.33;2.65;;;;;;;17.34;79.54;99115.47;1593685;87;21178;-57
2021/06/11 05:13:22;;;;;;;3.90;2.42;;;;;;;17.38;79.42;99116.91;1608047;87;21184;-55
2021/06/11 05:15:48;;;;;;;2.60;2.50;;;;;;;17.43;79.32;99111.95;1631638;85;20995;-57
2021/06/11 05:18:15;;;;;;;2.10;1.98;;;;;;;17.51;79.13;99116.73;1611628;86;21552;-55
2021/06/11 05:20:41;;;;;;;2.20;1.90;;;;;;;17.56;78.95;99119.90;1627346;86;21153;-56
2021/06/11 05:23:08;;;;;;;2.85;1.52;;;;;;;17.63;78.97;99121.12;1636602;86;21122;-56
2021/06/11 05:25:35;;;;;;;2.00;1.90;;;;;;;17.76;78.93;99114.48;1609477;86;21106;-57
2021/06/11 05:28:02;;;;;;;2.50;2.40;;;;;;;17.85;78.12;99112.82;1629210;86;21098;-55
2021/06/11 05:30:29;;;;;;;3.58;1.82;;;;;;;17.90;77.85;99127.38;1630339;85;21106;-56
2021/06/11 05:32:55;;;;;;;1.98;1.55;;;;;;;17.92;77.52;99121.30;1612225;88;21077;-56
2021/06/11 05:35:22;;;;;;;1.80;1.70;;;;;;;17.96;77.49;99122.73;1607573;87;21133;-55
2021/06/11 05:37:49;;;;;;;2.37;2.17;;;;;;;18.00;77.01;99123.71;1615744;86;21565;-56
2021/06/11 05:40:16;;;;;;;2.22;1.50;;;;;;;18.03;76.90;99130.75;1609999;87;21674;-57
2021/06/11 05:42:42;;;;;;;2.08;1.57;;;;;;;18.05;76.71;99132.81;1635620;86;20991;-56
2021/06/11 05:45:09;;;;;;;1.90;1.80;;;;;;;18.06;76.44;99141.36;1616687;87;21010;-57
2021/06/11 05:47:39;;;;;;;2.75;1.50;;;;;;;18.07;76.40;99132.19;1636535;85;21075;-55
2021/06/11 05:50:06;;;;;;;5.62;1.75;;;;;;;18.07;76.34;99133.55;1637563;86;21397;-55
2021/06/11 05:52:33;;;;;;;1.65;1.55;;;;;;;18.12;76.37;99129.41;1615693;86;21024;-55
2021/06/11 05:55:00;;;;;;;2.37;1.47;;;;;;;18.19;76.59;99137.06;1631539;86;21315;-55
2021/06/11 05:57:26;;;;;;;3.50;1.50;;;;;;;18.30;76.27;99132.36;1637212;86;20932;-57
2021/06/11 05:59:55;;;;;;;2.58;1.50;;;;;;;18.43;76.03;99134.85;1637805;86;21136;-60
2021/06/11 06:02:22;;;;;;;1.77;1.67;;;;;;;18.53;75.44;99128.94;1637664;86;20980;-57
2021/06/11 06:04:48;;;;;;;3.10;1.87;;;;;;;18.59;74.93;99138.45;1636594;86;20963;-55
2021/06/11 06:07:15;;;;;;;1.20;1.10;;;;;;;18.62;74.39;99139.05;1643887;84;21030;-55
2021/06/11 06:09:43;;;;;;;1.10;1.00;;;;;;;18.62;74.00;99138.17;1694292;82;20978;-56
2021/06/11 06:12:10;;;;;;;2.22;1.35;;;;;;;18.65;74.29;99136.52;1695284;82;21089;-55
2021/06/11 06:14:37;;;;;;;1.67;1.55;;;;;;;18.70;74.26;99143.80;1695776;82;20939;-55
2021/06/11 06:17:04;;;;;;;2.47;1.00;;;;;;;18.74;73.71;99147.95;1697070;82;20947;-57
2021/06/11 06:19:31;;;;;;;5.58;1.40;;;;;;;18.71;73.76;99138.20;1689183;82;20975;-55
2021/06/11 06:21:58;;;;;;;1.72;1.55;;;;;;;18.74;73.89;99137.91;1698950;82;20937;-57
2021/06/11 06:24:24;;;;;;;1.67;1.10;;;;;;;18.73;73.54;99140.27;1699767;82;21127;-58
2021/06/11 06:26:51;;;;;;;2.00;1.00;;;;;;;18.74;73.59;99143.36;1692562;82;21022;-55
2021/06/11 06:29:19;;;;;;;2.17;1.30;;;;;;;18.75;73.68;99147.81;1632914;82;21715;-58
2021/06/11 06:31:46;;;;;;;4.10;0.90;;;;;;;18.77;73.37;99146.31;1654419;82;21039;-58
2021/06/11 06:34:14;;;;;;;1.90;1.00;;;;;;;18.76;73.16;99145.45;1694529;82;21880;-56
2021/06/11 06:36:41;;;;;;;1.17;1.07;;;;;;;18.78;73.00;99146.18;1696288;82;21404;-55
2021/06/11 06:39:08;;;;;;;2.12;1.35;;;;;;;18.81;72.95;99146.38;1687988;82;21129;-55
2021/06/11 06:41:35;;;;;;;1.32;1.00;;;;;;;18.83;72.58;99149.83;1699688;82;21663;-59
2021/06/11 06:44:03;;;;;;;1.05;0.90;;;;;;;18.84;72.73;99150.20;1692975;82;21062;-56
2021/06/11 06:46:30;;;;;;;1.72;1.00;;;;;;;18.87;72.81;99148.06;1693703;82;21380;-55
2021/06/11 06:48:57;;;;;;;2.72;0.90;;;;;;;18.92;72.28;99144.03;1665630;82;21746;-58
2021/06/11 06:51:25;;;;;;;1.20;1.00;;;;;;;18.97;71.96;99142.59;1694553;82;21765;-54
2021/06/11 06:53:51;;;;;;;1.10;0.80;;;;;;;18.99;71.55;99152.01;1692598;82;20995;-57
2021/06/11 06:56:18;;;;;;;1.05;0.98;;;;;;;18.96;71.57;99149.09;1657144;84;21580;-56
2021/06/11 06:58:44;;;;;;;4.47;1.20;;;;;;;19.00;71.91;99145.55;1688601;82;21137;-59
2021/06/11 07:01:11;;;;;;;3.15;0.90;;;;;;;19.04;71.61;99151.10;1685894;82;21165;-59
2021/06/11 07:03:37;;;;;;;1.10;0.90;;;;;;;19.06;70.64;99142.25;1691609;82;21058;-59
2021/06/11 07:06:05;;;;;;;3.45;1.20;;;;;;;19.09;70.46;99150.16;1692536;82;21029;-56
2021/06/11 07:08:31;;;;;;;1.98;0.80;;;;;;;19.11;70.75;99149.52;1690571;82;21184;-55
2021/06/11 07:10:59;;;;;;;2.05;1.10;;;;;;;19.20;70.64;99154.13;1699436;82;21061;-54
2021/06/11 07:13:25;;;;;;;1.17;0.70;;;;;;;19.30;70.48;99149.54;1697956;82;21831;-58
2021/06/11 07:15:52;;;;;;;0.80;0.62;;;;;;;19.39;69.55;99144.59;1695652;82;21535;-58
2021/06/11 07:18:18;;;;;;;1.20;0.72;;;;;;;19.49;68.99;99143.22;1701357;82;21134;-57
2021/06/11 07:20:45;;;;;;;8.33;2.75;;;;;;;19.60;68.57;99141.71;1694383;82;21077;-58
2021/06/11 07:23:12;;;;;;;2.02;0.70;;;;;;;19.70;68.42;99143.06;1700953;82;21102;-58
2021/06/11 07:25:38;;;;;;;0.70;0.68;;;;;;;19.79;67.83;99144.41;1698070;82;21154;-59
2021/06/11 07:28:05;;;;;;;1.40;0.70;;;;;;;19.85;66.79;99147.05;1697415;82;21092;-56
2021/06/11 07:30:31;;;;;;;1.10;1.00;;;;;;;19.90;66.72;99140.66;1701506;82;21073;-58
2021/06/11 07:32:58;;;;;;;1.10;0.72;;;;;;;19.95;66.42;99142.44;1700087;82;21134;-56
2021/06/11 07:35:24;;;;;;;0.80;0.80;;;;;;;19.99;66.01;99141.97;1703058;82;21058;-54
2021/06/11 07:37:51;;;;;;;0.80;0.70;;;;;;;19.99;65.56;99139.24;1695193;82;21161;-56
2021/06/11 07:40:17;;;;;;;2.98;0.75;;;;;;;20.01;66.08;99144.56;1702893;82;21106;-56
2021/06/11 07:42:45;;;;;;;0.90;0.60;;;;;;;20.01;66.15;99143.20;1696438;82;21065;-55
2021/06/11 07:45:12;;;;;;;0.72;0.60;;;;;;;20.07;65.62;99144.50;1698194;82;21053;-58
2021/06/11 07:47:38;;;;;;;1.60;0.70;;;;;;;20.10;65.87;99143.67;1694894;82;21068;-56
2021/06/11 07:50:06;;;;;;;0.60;0.60;;;;;;;20.17;65.52;99143.43;1702442;82;21560;-54
2021/06/11 07:52:35;;;;;;;3.40;0.70;;;;;;;20.22;64.61;99145.73;1665065;84;21056;-55
2021/06/11 07:55:00;;;;;;;2.45;0.80;;;;;;;20.25;64.95;99150.88;1696997;82;21110;-57
2021/06/11 07:57:26;;;;;;;1.40;0.80;;;;;;;20.28;64.70;99151.95;1697258;82;21112;-59
2021/06/11 07:59:53;;;;;;;2.37;0.70;;;;;;;20.28;64.72;99152.81;1699241;82;21548;-57
2021/06/11 08:02:19;;;;;;;1.55;0.62;;;;;;;20.33;64.33;99153.22;1698659;82;21683;-60
2021/06/11 08:04:45;;;;;;;1.82;0.88;;;;;;;20.39;64.83;99152.67;1697324;82;21099;-57
2021/06/11 08:07:12;;;;;;;2.20;0.70;;;;;;;20.48;64.12;99150.05;1664021;84;21049;-57
2021/06/11 08:09:39;;;;;;;1.72;0.70;;;;;;;20.52;63.81;99146.84;1704371;82;21136;-56
2021/06/11 08:12:07;;;;;;;0.90;0.70;;;;;;;20.55;63.51;99152.52;1706859;82;20978;-56
2021/06/11 08:14:33;;;;;;;1.95;0.70;;;;;;;20.56;62.83;99140.58;1703755;82;21088;-57
2021/06/11 08:17:00;;;;;;;2.37;0.93;;;;;;;20.53;62.83;99145.84;1703376;82;21093;-58
2021/06/11 08:19:27;;;;;;;2.17;0.80;;;;;;;20.50;63.15;99148.86;1703946;82;21092;-56
2021/06/11 08:21:53;;;;;;;1.32;0.70;;;;;;;20.49;62.72;99146.30;1700528;82;21045;-57
2021/06/11 08:24:19;;;;;;;1.15;0.70;;;;;;;20.46;62.88;99154.80;1707164;82;21136;-57
2021/06/11 08:26:46;;;;;;;1.10;0.70;;;;;;;20.45;63.34;99151.70;1703064;82;21091;-58
2021/06/11 08:29:12;;;;;;;1.42;0.80;;;;;;;20.48;64.12;99157.74;1704600;82;21128;-56
2021/06/11 08:31:38;;;;;;;0.80;0.72;;;;;;;20.55;63.66;99153.89;1703630;82;21118;-56
2021/06/11 08:34:05;;;;;;;1.47;0.72;;;;;;;20.63;63.88;99152.63;1700146;82;21096;-57
2021/06/11 08:36:31;;;;;;;0.85;0.70;;;;;;;20.71;63.47;99148.63;1705357;82;21103;-57
2021/06/11 08:38:57;;;;;;;3.10;0.80;;;;;;;20.78;62.90;99160.16;1704034;82;21241;-55
2021/06/11 08:41:23;;;;;;;1.70;0.82;;;;;;;20.85;62.54;99156.80;1702725;82;21136;-54
2021/06/11 08:43:50;;;;;;;2.25;0.80;;;;;;;20.95;62.43;99153.51;1697860;82;21087;-56
2021/06/11 08:46:16;;;;;;;1.55;0.60;;;;;;;21.01;62.11;99157.84;1700395;82;21089;-57
2021/06/11 08:48:43;;;;;;;1.82;0.90;;;;;;;21.04;60.87;99160.80;1637380;83;21583;-56
2021/06/11 08:51:10;;;;;;;1.55;0.82;;;;;;;21.03;60.93;99153.59;1702941;82;21152;-54
2021/06/11 08:53:39;;;;;;;3.00;0.93;;;;;;;21.02;61.11;99155.97;1708541;82;21511;-56
2021/06/11 08:56:06;;;;;;;4.33;0.80;;;;;;;21.02;60.20;99151.36;1706639;82;20946;-58
2021/06/11 08:58:32;;;;;;;1.35;0.60;;;;;;;21.01;60.07;99148.81;1704482;82;20879;-56
2021/06/11 09:00:58;;;;;;;3.83;0.70;;;;;;;21.02;59.59;99154.61;1705827;82;21444;-55
2021/06/11 09:03:34;;;;;;;1.10;0.80;;;;;;;20.99;59.47;99158.53;1709388;82;21410;-58
2021/06/11 09:06:12;;;;;;;0.90;0.70;;;;;;;20.97;58.54;99159.69;1713313;82;21005;-56
2021/06/11 09:08:35;;;;;;;0.80;0.70;;;;;;;20.95;59.22;99163.08;1707241;81;20903;-57
2021/06/11 09:11:21;;;;;;;1.82;0.70;;;;;;;20.94;59.50;99152.64;1712221;82;20973;-57
2021/06/11 09:13:55;;;;;;;1.25;0.70;;;;;;;20.94;58.83;99147.67;1709235;82;21386;-56
2021/06/11 09:16:25;;;;;;;0.88;0.60;;;;;;;20.95;58.56;99150.77;1708015;81;21651;-59
2021/06/11 09:19:02;;;;;;;0.60;0.60;;;;;;;20.96;59.03;99150.62;1715696;82;21363;-57
2021/06/11 09:21:38;;;;;;;3.35;0.70;;;;;;;20.96;58.29;99147.89;1656532;84;20942;-58
2021/06/11 09:24:23;;;;;;;1.05;0.70;;;;;;;20.97;58.28;99146.02;1649572;84;21048;-54
2021/06/11 09:27:08;;;;;;;1.95;0.70;;;;;;;20.98;58.28;99143.63;1681536;84;21453;-57
2021/06/11 09:29:46;;;;;;;0.98;0.60;;;;;;;20.97;58.08;99141.41;1654581;85;21502;-55
2021/06/11 09:32:26;;;;;;;2.05;0.60;;;;;;;20.97;57.82;99134.56;1650856;85;20933;-58
2021/06/11 09:34:56;;;;;;;2.95;0.60;;;;;;;20.97;56.95;99137.80;1683012;84;20989;-57
2021/06/11 09:37:30;;;;;;;0.65;0.50;;;;;;;20.95;56.71;99130.25;1678574;84;21087;-58
2021/06/11 09:40:00;;;;;;;0.90;0.60;;;;;;;21.00;57.02;99130.67;1655724;84;21108;-56
2021/06/11 09:42:33;;;;;;;0.70;0.60;;;;;;;21.04;57.22;99128.81;1656549;85;21800;-57
2021/06/11 09:45:14;;;;;;;2.83;0.70;;;;;;;21.11;57.35;99118.97;1656397;85;21111;-58
2021/06/11 09:47:46;;;;;;;2.12;0.70;;;;;;;21.13;56.76;99120.19;1653617;84;21502;-59
2021/06/11 09:50:23;;;;;;;2.60;0.70;;;;;;;21.14;57.49;99126.02;1654782;84;21745;-57
2021/06/11 09:53:06;;;;;;;1.10;0.90;;;;;;;21.18;57.36;99126.61;1649760;85;21670;-56
2021/06/11 09:55:50;;;;;;;2.65;0.80;;;;;;;21.24;57.17;99130.94;1654254;85;21452;-57
2021/06/11 09:58:24;;;;;;;2.30;0.90;;;;;;;21.29;56.49;99127.72;1655291;85;21134;-55
2021/06/11 10:01:08;;;;;;;2.40;0.80;;;;;;;21.37;56.06;99118.21;1653620;85;21112;-56
2021/06/11 10:03:37;;;;;;;2.70;0.70;;;;;;;21.46;56.55;99115.90;1653511;85;25409;-59
2021/06/11 10:06:06;;;;;;;0.70;0.70;;;;;;;21.56;56.04;99118.05;1652179;85;21105;-57
2021/06/11 10:08:33;;;;;;;0.70;0.70;;;;;;;21.63;56.51;99125.97;1655108;85;21109;-59
2021/06/11 10:11:06;;;;;;;1.47;0.70;;;;;;;21.73;55.61;99117.66;1643049;85;21125;-56
2021/06/11 10:13:33;;;;;;;4.30;0.60;;;;;;;21.79;56.26;99114.27;1644938;85;21153;-58
2021/06/11 10:16:07;;;;;;;0.65;0.65;;;;;;;21.88;56.12;99117.42;1641791;85;21118;-55
2021/06/11 10:18:33;;;;;;;1.70;0.65;;;;;;;21.98;55.64;99107.76;1643606;85;22331;-57
2021/06/11 10:21:01;;;;;;;1.47;0.70;;;;;;;22.09;55.52;99114.34;1643031;85;21137;-56
2021/06/11 10:23:29;;;;;;;0.70;0.70;;;;;;;22.20;54.13;99111.33;1644462;85;21097;-56
2021/06/11 10:25:56;;;;;;;0.68;0.60;;;;;;;22.31;54.27;99110.16;1646916;85;21540;-57
2021/06/11 10:28:40;;;;;;;0.70;0.70;;;;;;;22.36;53.08;99114.66;1648644;85;21422;-60
2021/06/11 10:31:12;;;;;;;0.95;0.70;;;;;;;22.36;52.73;99109.18;1645658;85;21053;-57
2021/06/11 10:33:51;;;;;;;0.50;0.50;;;;;;;22.30;52.83;99103.82;1647802;85;22259;-59
2021/06/11 10:36:33;;;;;;;4.83;0.70;;;;;;;22.26;53.28;99100.57;1646589;84;21078;-58
2021/06/11 10:39:03;;;;;;;0.78;0.60;;;;;;;22.23;52.98;99098.65;1645995;85;21031;-55
2021/06/11 10:41:51;;;;;;;1.35;0.70;;;;;;;22.22;53.43;99106.52;1643438;85;21165;-57
2021/06/11 10:44:42;;;;;;;3.55;0.60;;;;;;;22.25;53.57;99103.47;1646422;85;21073;-59
2021/06/11 10:47:23;;;;;;;1.20;0.80;;;;;;;22.23;53.59;99106.37;1644340;85;21779;-56
2021/06/11 10:50:01;;;;;;;1.00;0.80;;;;;;;22.19;55.33;99111.84;1646270;84;21591;-55
2021/06/11 10:52:47;;;;;;;0.80;0.80;;;;;;;22.11;56.55;99109.56;1647149;85;21085;-56
2021/06/11 10:55:24;;;;;;;2.55;0.95;;;;;;;22.04;57.41;99107.10;1639867;84;21321;-58
2021/06/11 10:58:02;;;;;;;0.93;0.78;;;;;;;22.01;57.84;99112.42;1643573;84;21480;-57
2021/06/11 11:00:34;;;;;;;0.90;0.90;;;;;;;21.95;58.40;99103.41;1624712;85;21120;-56
2021/06/11 11:03:02;;;;;;;2.42;0.90;;;;;;;21.98;58.72;99103.14;1644483;84;22230;-58
2021/06/11 11:05:33;;;;;;;1.00;0.90;;;;;;;22.02;58.80;99099.58;1646319;85;20944;-56
2021/06/11 11:08:02;;;;;;;0.93;0.80;;;;;;;21.98;57.80;99100.40;1650773;84;21015;-60
2021/06/11 11:10:36;;;;;;;1.02;0.80;;;;;;;21.83;58.30;99109.70;1696512;82;21000;-57
2021/06/11 11:13:04;;;;;;;1.37;0.80;;;;;;;21.76;58.90;99094.93;1706582;82;21391;-60
2021/06/11 11:15:43;;;;;;;0.80;0.80;;;;;;;21.77;59.76;99105.38;1699179;82;21483;-56
2021/06/11 11:18:23;;;;;;;2.47;0.75;;;;;;;21.83;60.26;99092.40;1702644;82;20896;-60
2021/06/11 11:20:48;;;;;;;1.07;0.98;;;;;;;21.92;60.32;99096.91;1698844;82;21074;-57
2021/06/11 11:23:16;;;;;;;2.35;0.80;;;;;;;22.08;60.47;99090.70;1639436;85;21105;-59
2021/06/11 11:25:43;;;;;;;0.70;0.70;;;;;;;22.20;59.35;99086.66;1697518;82;21041;-59
2021/06/11 11:28:10;;;;;;;2.25;0.70;;;;;;;22.29;58.14;99080.16;1697090;82;21070;-58
2021/06/11 11:30:38;;;;;;;0.80;0.78;;;;;;;22.35;57.67;99073.19;1697076;82;21105;-57
2021/06/11 11:33:05;;;;;;;0.90;0.72;;;;;;;22.40;57.59;99077.14;1697347;82;21101;-57
2021/06/11 11:35:35;;;;;;;2.05;0.90;;;;;;;22.42;56.92;99080.58;1692106;82;21081;-56
2021/06/11 11:38:04;;;;;;;1.12;0.78;;;;;;;22.45;55.86;99075.29;1697518;82;22007;-58
2021/06/11 11:40:30;;;;;;;1.02;0.70;;;;;;;22.43;56.31;99069.11;1701083;82;21142;-57
2021/06/11 11:42:58;;;;;;;2.75;1.00;;;;;;;22.38;56.63;99070.95;1696894;82;21114;-58
2021/06/11 11:45:26;;;;;;;0.93;0.65;;;;;;;22.40;56.28;99079.02;1695561;82;21423;-57